Terminal Aerodrome Forecast
Issued by NWS

Home | Current Version | Previous Version | Text Only | Print | Product List | Glossary On
Versions: 1 2 3 4 5 6 7 8 9 10 11 12 13 14 15 16
397
FTUS43 KILX 221732
TAFDEC
TAF
KDEC 221732Z 2218/2318 32005KT P6SM SKC
     FM230200 19005KT P6SM BKN220
     FM230800 20006KT P6SM BKN100
     FM231200 20008KT P6SM FEW100
     FM231500 21010KT P6SM SKC=

USA.gov is the U.S. government's official web portal to all federal, state and local government web resources and services.